createdAt,value
2019-04-28T00:00:35.298Z,0.00
2019-04-28T00:01:34.568Z,0.00
2019-04-28T00:03:34.581Z,0.00
2019-04-28T00:04:34.575Z,0.00
2019-04-28T00:05:34.559Z,0.00
2019-04-28T00:06:34.906Z,0.00
2019-04-28T00:07:34.630Z,4.00
2019-04-28T00:08:34.600Z,0.00
2019-04-28T00:09:34.640Z,0.00
2019-04-28T00:10:34.641Z,0.00
2019-04-28T00:11:34.635Z,0.00
2019-04-28T00:12:34.664Z,0.00
2019-04-28T00:13:34.704Z,0.00
2019-04-28T00:14:34.681Z,0.00
2019-04-28T00:15:34.710Z,0.00
2019-04-28T00:16:34.765Z,0.00
2019-04-28T00:17:34.733Z,0.00
2019-04-28T00:18:34.736Z,0.00
2019-04-28T00:19:34.832Z,0.00
2019-04-28T00:20:34.769Z,0.00
2019-04-28T00:21:34.778Z,0.00
2019-04-28T00:23:34.847Z,0.00
2019-04-28T00:24:34.814Z,0.00
2019-04-28T00:25:34.832Z,0.00
2019-04-28T00:26:34.844Z,0.00
2019-04-28T00:27:34.891Z,0.00
2019-04-28T00:28:35.026Z,0.00
2019-04-28T00:29:40.428Z,0.00
2019-04-28T00:31:35.247Z,0.00
2019-04-28T00:32:34.921Z,0.00
2019-04-28T00:33:34.928Z,0.00
2019-04-28T00:34:34.998Z,0.00
2019-04-28T00:35:35.304Z,0.00
2019-04-28T00:36:34.983Z,4.00
2019-04-28T00:37:35.000Z,0.00
2019-04-28T00:38:35.018Z,0.00
2019-04-28T00:39:35.040Z,0.00
2019-04-28T00:40:35.021Z,0.00
2019-04-28T00:41:35.094Z,0.00
2019-04-28T00:42:35.357Z,0.00
2019-04-28T00:44:35.174Z,0.00
2019-04-28T00:45:35.487Z,0.00
2019-04-28T00:46:35.129Z,4.00
2019-04-28T00:47:35.137Z,4.00
2019-04-28T00:48:35.137Z,4.00
2019-04-28T00:49:35.219Z,0.00
2019-04-28T00:50:35.233Z,0.00
2019-04-28T00:51:35.163Z,0.00
2019-04-28T00:52:35.195Z,0.00
2019-04-28T00:53:35.194Z,0.00
2019-04-28T00:54:35.207Z,0.00
2019-04-28T00:55:35.413Z,0.00
2019-04-28T00:56:35.244Z,0.00
2019-04-28T00:57:35.432Z,0.00
2019-04-28T00:58:35.276Z,0.00
2019-04-28T00:59:35.279Z,0.00
2019-04-28T01:00:35.352Z,0.00
2019-04-28T01:01:35.347Z,0.00
2019-04-28T01:02:35.373Z,0.00
2019-04-28T01:04:35.356Z,0.00
2019-04-28T01:05:35.364Z,0.00
2019-04-28T01:06:35.370Z,0.00
2019-04-28T01:07:35.393Z,0.00
2019-04-28T01:08:35.407Z,0.00
2019-04-28T01:09:35.499Z,0.00
2019-04-28T01:10:35.436Z,0.00
2019-04-28T01:11:35.751Z,0.00
2019-04-28T01:12:35.520Z,0.00
2019-04-28T01:13:36.561Z,0.00
2019-04-28T01:14:35.484Z,0.00
2019-04-28T01:15:35.605Z,0.00
2019-04-28T01:16:35.543Z,0.00
2019-04-28T01:17:35.528Z,0.00
2019-04-28T01:18:35.538Z,0.00
2019-04-28T01:19:35.551Z,0.00
2019-04-28T01:20:35.560Z,0.00
2019-04-28T01:21:36.170Z,0.00
2019-04-28T01:22:35.589Z,0.00
2019-04-28T01:23:35.618Z,0.00
2019-04-28T01:24:35.661Z,0.00
2019-04-28T01:25:35.652Z,0.00
2019-04-28T01:26:35.647Z,0.00
2019-04-28T01:27:35.765Z,0.00
2019-04-28T01:28:36.143Z,0.00
2019-04-28T01:29:35.687Z,4.00
2019-04-28T01:30:35.706Z,0.00
2019-04-28T01:31:35.792Z,0.00
2019-04-28T01:32:35.730Z,0.00
2019-04-28T01:33:36.804Z,0.00
2019-04-28T01:34:35.864Z,0.00
2019-04-28T01:35:35.822Z,0.00
2019-04-28T01:37:35.804Z,4.00
2019-04-28T01:39:35.809Z,0.00
2019-04-28T01:40:36.292Z,0.00
2019-04-28T01:41:35.834Z,0.00
2019-04-28T01:42:35.890Z,0.00
2019-04-28T01:43:36.087Z,0.00
2019-04-28T01:44:35.891Z,0.00
2019-04-28T01:45:35.888Z,0.00
2019-04-28T01:46:35.904Z,0.00
2019-04-28T01:47:35.926Z,0.00
2019-04-28T01:48:36.062Z,0.00
2019-04-28T01:49:35.964Z,0.00
2019-04-28T01:50:36.287Z,0.00
2019-04-28T01:51:36.026Z,0.00
2019-04-28T01:52:36.074Z,0.00
2019-04-28T01:53:35.988Z,0.00
2019-04-28T01:54:36.169Z,0.00
2019-04-28T01:55:36.512Z,0.00
2019-04-28T01:56:36.282Z,0.00
2019-04-28T01:57:36.152Z,0.00
2019-04-28T01:59:36.252Z,0.00
2019-04-28T02:00:36.328Z,0.00
2019-04-28T02:01:36.118Z,0.00
2019-04-28T02:02:36.127Z,0.00
2019-04-28T02:03:36.306Z,4.00
2019-04-28T02:04:36.151Z,0.00
2019-04-28T02:05:36.146Z,0.00
2019-04-28T02:06:36.234Z,0.00
2019-04-28T02:08:36.196Z,0.00
2019-04-28T02:09:36.208Z,0.00
2019-04-28T02:10:36.230Z,0.00
2019-04-28T02:11:36.242Z,0.00
2019-04-28T02:12:36.316Z,0.00
2019-04-28T02:13:36.267Z,0.00
2019-04-28T02:14:36.265Z,0.00
2019-04-28T02:15:36.415Z,0.00
2019-04-28T02:16:36.309Z,0.00
2019-04-28T02:17:36.317Z,0.00
2019-04-28T02:18:36.329Z,0.00
2019-04-28T02:19:36.575Z,0.00
2019-04-28T02:20:36.473Z,0.00
2019-04-28T02:21:36.365Z,0.00
2019-04-28T02:22:36.370Z,0.00
2019-04-28T02:23:36.402Z,0.00
2019-04-28T02:24:36.415Z,0.00
2019-04-28T02:25:36.417Z,0.00
2019-04-28T02:26:36.461Z,0.00
2019-04-28T02:27:36.453Z,0.00
2019-04-28T02:28:36.468Z,0.00
2019-04-28T02:29:36.580Z,0.00
2019-04-28T02:30:47.703Z,0.00
2019-04-28T02:32:36.849Z,0.00
2019-04-28T02:33:36.526Z,0.00
2019-04-28T02:34:36.574Z,0.00
2019-04-28T02:35:36.574Z,0.00
2019-04-28T02:36:36.584Z,0.00
2019-04-28T02:37:36.618Z,0.00
2019-04-28T02:38:36.589Z,0.00
2019-04-28T02:39:36.604Z,0.00
2019-04-28T02:40:36.837Z,0.00
2019-04-28T02:41:36.630Z,0.00
2019-04-28T02:42:36.697Z,0.00
2019-04-28T02:43:36.656Z,0.00
2019-04-28T02:44:36.671Z,0.00
2019-04-28T02:45:36.746Z,0.00
2019-04-28T02:46:36.709Z,0.00
2019-04-28T02:47:36.728Z,0.00
2019-04-28T02:48:36.732Z,0.00
2019-04-28T02:49:36.756Z,0.00
2019-04-28T02:50:36.742Z,0.00
2019-04-28T02:51:36.761Z,0.00
2019-04-28T02:52:36.781Z,0.00
2019-04-28T02:53:36.785Z,0.00
2019-04-28T02:55:37.022Z,0.00
2019-04-28T02:56:36.827Z,0.00
2019-04-28T02:57:36.841Z,0.00
2019-04-28T02:59:36.934Z,0.00
2019-04-28T03:00:37.003Z,0.00
2019-04-28T03:01:36.936Z,0.00
2019-04-28T03:03:37.097Z,4.00
2019-04-28T03:04:36.953Z,4.00
2019-04-28T03:05:37.161Z,0.00
2019-04-28T03:06:36.964Z,0.00
2019-04-28T03:07:37.088Z,0.00
2019-04-28T03:08:37.005Z,0.00
2019-04-28T03:09:36.995Z,0.00
2019-04-28T03:10:37.084Z,4.00
2019-04-28T03:11:37.075Z,0.00
2019-04-28T03:12:37.050Z,4.00
2019-04-28T03:13:37.073Z,0.00
2019-04-28T03:14:37.085Z,4.00
2019-04-28T03:15:37.173Z,4.00
2019-04-28T03:16:37.087Z,4.00
2019-04-28T03:17:37.121Z,4.00
2019-04-28T03:18:37.130Z,4.00
2019-04-28T03:19:37.146Z,4.00
2019-04-28T03:20:37.157Z,4.00
2019-04-28T03:21:37.173Z,4.00
2019-04-28T03:22:37.182Z,4.00
2019-04-28T03:23:37.213Z,4.00
2019-04-28T03:24:37.228Z,4.00
2019-04-28T03:25:37.274Z,4.00
2019-04-28T03:26:37.266Z,4.00
2019-04-28T03:27:37.363Z,4.00
2019-04-28T03:28:37.276Z,4.00
2019-04-28T03:29:37.273Z,4.00
2019-04-28T03:30:37.338Z,4.00
2019-04-28T03:32:07.309Z,4.00
2019-04-28T03:32:51.772Z,4.00
2019-04-28T03:33:43.498Z,4.00
2019-04-28T03:34:37.440Z,4.00
2019-04-28T03:35:37.375Z,4.00
2019-04-28T03:37:37.815Z,4.00
2019-04-28T03:38:37.386Z,4.00
2019-04-28T03:39:37.405Z,4.00
2019-04-28T03:40:37.667Z,4.00
2019-04-28T03:41:37.469Z,4.00
2019-04-28T03:42:37.464Z,4.00
2019-04-28T03:43:40.436Z,4.00
2019-04-28T03:44:37.755Z,4.00
2019-04-28T03:45:37.484Z,0.00
2019-04-28T03:46:37.495Z,4.00
2019-04-28T03:47:40.458Z,4.00
2019-04-28T03:48:37.512Z,4.00
2019-04-28T03:49:40.573Z,4.00
2019-04-28T03:50:37.550Z,4.00
2019-04-28T03:51:37.566Z,4.00
2019-04-28T03:52:37.726Z,4.00
2019-04-28T03:53:37.581Z,8.00
2019-04-28T03:54:40.670Z,4.00
2019-04-28T03:55:37.743Z,8.00
2019-04-28T03:56:37.794Z,8.00
2019-04-28T03:57:37.650Z,8.00
2019-04-28T03:58:40.422Z,8.00
2019-04-28T03:59:37.968Z,8.00
2019-04-28T04:00:37.680Z,8.00
2019-04-28T04:01:53.035Z,12.00
2019-04-28T04:02:37.831Z,12.00
2019-04-28T04:03:37.723Z,12.00
2019-04-28T04:04:37.741Z,16.00
2019-04-28T04:05:40.390Z,16.00
2019-04-28T04:06:37.765Z,16.00
2019-04-28T04:07:42.789Z,20.00
2019-04-28T04:08:40.543Z,20.00
2019-04-28T04:09:38.002Z,20.00
2019-04-28T04:10:40.184Z,24.00
2019-04-28T04:11:37.947Z,24.00
2019-04-28T04:12:37.874Z,28.00
2019-04-28T04:13:37.872Z,28.00
2019-04-28T04:14:37.886Z,28.00
2019-04-28T04:15:41.073Z,32.00
2019-04-28T04:16:40.351Z,36.00
2019-04-28T04:17:37.917Z,40.00
2019-04-28T04:18:40.490Z,40.00
2019-04-28T04:19:40.499Z,44.00
2019-04-28T04:20:37.949Z,48.00
2019-04-28T04:22:37.975Z,52.00
2019-04-28T04:23:40.901Z,52.00
2019-04-28T04:24:40.386Z,60.00
2019-04-28T04:25:38.086Z,64.00
2019-04-28T04:26:40.712Z,64.00
2019-04-28T04:27:40.477Z,68.00
2019-04-28T04:28:38.152Z,72.00
2019-04-28T04:29:38.112Z,80.00
2019-04-28T04:30:40.597Z,80.00
2019-04-28T04:31:38.092Z,88.00
2019-04-28T04:32:40.900Z,92.00
2019-04-28T04:33:40.738Z,100.00
2019-04-28T04:34:40.532Z,104.00
2019-04-28T04:35:38.154Z,108.00
2019-04-28T04:36:41.405Z,116.00
2019-04-28T04:37:40.392Z,120.00
2019-04-28T04:39:40.688Z,132.00
2019-04-28T04:40:40.978Z,140.00
2019-04-28T04:41:42.951Z,144.00
2019-04-28T04:42:40.271Z,156.00
2019-04-28T04:44:41.412Z,172.00
2019-04-28T04:45:40.463Z,180.00
2019-04-28T04:46:41.237Z,184.00
2019-04-28T04:47:40.645Z,196.00
2019-04-28T04:48:40.663Z,204.00
2019-04-28T04:49:40.423Z,212.00
2019-04-28T04:50:40.926Z,220.00
2019-04-28T04:51:43.302Z,232.00
2019-04-28T04:52:40.304Z,240.00
2019-04-28T04:53:40.622Z,248.00
2019-04-28T04:54:40.152Z,260.00
2019-04-28T04:55:40.750Z,268.00
2019-04-28T04:56:40.111Z,276.00
2019-04-28T04:57:40.329Z,288.00
2019-04-28T04:58:40.452Z,296.00
2019-04-28T04:59:40.176Z,304.00
2019-04-28T05:00:40.431Z,316.00
2019-04-28T05:01:40.668Z,328.00
2019-04-28T05:02:40.988Z,336.00
2019-04-28T05:03:39.719Z,348.00
2019-04-28T05:04:39.577Z,356.00
2019-04-28T05:05:40.370Z,368.00
2019-04-28T05:06:39.963Z,376.00
2019-04-28T05:07:39.642Z,392.00
2019-04-28T05:08:39.959Z,404.00
2019-04-28T05:09:39.538Z,420.00
2019-04-28T05:10:40.392Z,432.00
2019-04-28T05:11:40.019Z,444.00
2019-04-28T05:12:40.398Z,460.00
2019-04-28T05:13:39.921Z,472.00
2019-04-28T05:14:39.554Z,488.00
2019-04-28T05:16:39.788Z,512.00
2019-04-28T05:17:40.204Z,524.00
2019-04-28T05:18:39.351Z,540.00
2019-04-28T05:19:40.186Z,548.00
2019-04-28T05:20:40.344Z,560.00
2019-04-28T05:21:40.212Z,568.00
2019-04-28T05:22:39.993Z,576.00
2019-04-28T05:23:39.980Z,584.00
2019-04-28T05:24:40.276Z,588.00
2019-04-28T05:25:39.641Z,600.00
2019-04-28T05:27:39.922Z,612.00
2019-04-28T05:28:44.004Z,620.00
2019-04-28T05:29:39.843Z,628.00
2019-04-28T05:30:39.722Z,632.00
2019-04-28T05:31:40.074Z,640.00
2019-04-28T05:32:44.687Z,648.00
2019-04-28T05:33:39.622Z,660.00
2019-04-28T05:34:41.430Z,664.00
2019-04-28T05:35:39.692Z,680.00
2019-04-28T05:36:42.492Z,688.00
2019-04-28T05:37:40.462Z,704.00
2019-04-28T05:38:40.186Z,720.00
2019-04-28T05:39:40.495Z,736.00
2019-04-28T05:41:40.079Z,772.00
2019-04-28T05:42:39.471Z,788.00
2019-04-28T05:43:40.472Z,812.00
2019-04-28T05:44:40.762Z,832.00
2019-04-28T05:45:39.730Z,852.00
2019-04-28T05:46:40.243Z,876.00
2019-04-28T05:47:40.789Z,896.00
2019-04-28T05:48:40.826Z,920.00
2019-04-28T05:49:39.686Z,944.00
2019-04-28T05:50:40.097Z,968.00
2019-04-28T05:52:40.342Z,1012.00
2019-04-28T05:54:40.364Z,1060.00
2019-04-28T05:56:39.729Z,1104.00
2019-04-28T05:57:39.830Z,1128.00
2019-04-28T05:58:40.298Z,1160.00
2019-04-28T05:59:40.342Z,1184.00
2019-04-28T06:00:39.713Z,1212.00
2019-04-28T06:01:40.593Z,1236.00
2019-04-28T06:02:40.876Z,1268.00
2019-04-28T06:03:40.559Z,1292.00
2019-04-28T06:04:40.535Z,1324.00
2019-04-28T06:05:39.600Z,1348.00
2019-04-28T06:06:40.506Z,1376.00
2019-04-28T06:07:40.518Z,1400.00
2019-04-28T06:08:40.769Z,1428.00
2019-04-28T06:09:39.955Z,1456.00
2019-04-28T06:10:39.926Z,1484.00
2019-04-28T06:11:39.930Z,1516.00
2019-04-28T06:12:40.522Z,1548.00
2019-04-28T06:13:40.160Z,1576.00
2019-04-28T06:14:40.270Z,1608.00
2019-04-28T06:15:39.780Z,1636.00
2019-04-28T06:16:40.704Z,1660.00
2019-04-28T06:17:39.871Z,1684.00
2019-04-28T06:18:42.148Z,1712.00
2019-04-28T06:20:40.668Z,1772.00
2019-04-28T06:21:39.590Z,1804.00
2019-04-28T06:22:40.024Z,1836.00
2019-04-28T06:23:39.619Z,1860.00
2019-04-28T06:24:39.604Z,1884.00
2019-04-28T06:25:39.639Z,1900.00
2019-04-28T06:26:39.645Z,1920.00
2019-04-28T06:27:39.644Z,1940.00
2019-04-28T06:28:39.675Z,1952.00
2019-04-28T06:29:39.677Z,1968.00
2019-04-28T06:30:39.688Z,1984.00
2019-04-28T06:31:39.743Z,1996.00
2019-04-28T06:32:39.733Z,2008.00
2019-04-28T06:33:39.730Z,2016.00
2019-04-28T06:34:39.766Z,2024.00
2019-04-28T06:35:39.756Z,2040.00
2019-04-28T06:36:40.214Z,2052.00
2019-04-28T06:37:39.830Z,2064.00
2019-04-28T06:38:39.926Z,2076.00
2019-04-28T06:39:39.878Z,2092.00
2019-04-28T06:40:39.836Z,2104.00
2019-04-28T06:41:40.186Z,2116.00
2019-04-28T06:42:39.858Z,2132.00
2019-04-28T06:43:39.871Z,2136.00
2019-04-28T06:44:39.889Z,2140.00
2019-04-28T06:45:39.899Z,2140.00
2019-04-28T06:46:39.904Z,2152.00
2019-04-28T06:47:40.692Z,2164.00
2019-04-28T06:48:40.687Z,2168.00
2019-04-28T06:49:40.884Z,2176.00
2019-04-28T06:50:41.225Z,2184.00
2019-04-28T06:51:41.417Z,2196.00
2019-04-28T06:52:42.523Z,2204.00
2019-04-28T06:53:40.135Z,2212.00
2019-04-28T06:54:40.031Z,2220.00
2019-04-28T06:55:40.027Z,2236.00
2019-04-28T06:56:41.712Z,2260.00
2019-04-28T06:57:40.065Z,2280.00
2019-04-28T06:58:40.073Z,2296.00
2019-04-28T06:59:40.187Z,2308.00
2019-04-28T07:00:40.096Z,2316.00
2019-04-28T07:01:40.196Z,2320.00
2019-04-28T07:02:40.240Z,2344.00
2019-04-28T07:03:40.287Z,2356.00
2019-04-28T07:04:40.171Z,2352.00
2019-04-28T07:05:40.669Z,2352.00
2019-04-28T07:06:40.465Z,2372.00
2019-04-28T07:07:40.303Z,2364.00
2019-04-28T07:08:41.365Z,2372.00
2019-04-28T07:09:40.286Z,2372.00
2019-04-28T07:10:40.280Z,2372.00
2019-04-28T07:11:40.400Z,2376.00
2019-04-28T07:12:40.281Z,2384.00
2019-04-28T07:13:40.295Z,2392.00
2019-04-28T07:14:40.410Z,2400.00
2019-04-28T07:15:40.368Z,2380.00
2019-04-28T07:16:40.332Z,2408.00
2019-04-28T07:17:40.499Z,2396.00
2019-04-28T07:18:40.366Z,2384.00
2019-04-28T07:19:40.535Z,2400.00
2019-04-28T07:20:40.395Z,2412.00
2019-04-28T07:23:40.594Z,2552.00
2019-04-28T07:24:40.509Z,2560.00
2019-04-28T07:25:42.490Z,2540.00
2019-04-28T07:26:40.626Z,2468.00
2019-04-28T07:27:40.491Z,2384.00
2019-04-28T07:28:40.652Z,2324.00
2019-04-28T07:29:40.618Z,2344.00
2019-04-28T07:30:40.824Z,2368.00
2019-04-28T07:31:41.155Z,2432.00
2019-04-28T07:32:40.657Z,2388.00
2019-04-28T07:33:40.891Z,2348.00
2019-04-28T07:34:40.639Z,2552.00
2019-04-28T07:35:40.687Z,2600.00
2019-04-28T07:36:40.612Z,2608.00
2019-04-28T07:37:40.637Z,2584.00
2019-04-28T07:39:40.663Z,2872.00
2019-04-28T07:40:40.682Z,2680.00
2019-04-28T07:41:41.578Z,2852.00
2019-04-28T07:43:41.245Z,2880.00
2019-04-28T07:44:40.739Z,2680.00
2019-04-28T07:45:41.602Z,2716.00
2019-04-28T07:46:40.881Z,2728.00
2019-04-28T07:48:40.773Z,2744.00
2019-04-28T07:49:40.817Z,2680.00
2019-04-28T07:50:40.799Z,2688.00
2019-04-28T07:51:40.969Z,2880.00
2019-04-28T07:52:41.698Z,2884.00
2019-04-28T07:53:40.842Z,2796.00
2019-04-28T07:54:40.908Z,2988.00
2019-04-28T07:55:40.888Z,2908.00
2019-04-28T07:56:40.935Z,2748.00
2019-04-28T07:57:41.102Z,2880.00
2019-04-28T07:59:40.972Z,3244.00
2019-04-28T08:00:41.001Z,2972.00
2019-04-28T08:01:41.022Z,3144.00
2019-04-28T08:02:41.536Z,2816.00
2019-04-28T08:03:49.437Z,2796.00
2019-04-28T08:04:41.016Z,2824.00
2019-04-28T08:05:41.036Z,2848.00
2019-04-28T08:06:41.045Z,2856.00
2019-04-28T08:07:41.074Z,3152.00
2019-04-28T08:08:41.094Z,3100.00
2019-04-28T08:09:41.480Z,2920.00
2019-04-28T08:10:41.102Z,2892.00
2019-04-28T08:11:41.125Z,2836.00
2019-04-28T08:12:41.140Z,2760.00
2019-04-28T08:13:41.127Z,2664.00
2019-04-28T08:14:41.357Z,2652.00
2019-04-28T08:15:41.172Z,2636.00
2019-04-28T08:17:41.195Z,2736.00
2019-04-28T08:18:41.517Z,2792.00
2019-04-28T08:19:41.275Z,2704.00
2019-04-28T08:20:41.244Z,2684.00
2019-04-28T08:21:41.348Z,2724.00
2019-04-28T08:23:47.205Z,3180.00
2019-04-28T08:24:41.575Z,3872.00
2019-04-28T08:25:41.317Z,4128.00
2019-04-28T08:26:41.388Z,3416.00
2019-04-28T08:27:41.658Z,3308.00
2019-04-28T08:28:41.382Z,3504.00
2019-04-28T08:30:41.467Z,3324.00
2019-04-28T08:31:41.422Z,3284.00
2019-04-28T08:32:41.427Z,3256.00
2019-04-28T08:33:41.433Z,2936.00
2019-04-28T08:34:41.501Z,2776.00
2019-04-28T08:35:41.540Z,2672.00
2019-04-28T08:36:41.480Z,2624.00
2019-04-28T08:37:41.564Z,2732.00
2019-04-28T08:38:41.713Z,2348.00
2019-04-28T08:39:41.531Z,2100.00
2019-04-28T08:40:41.607Z,1876.00
2019-04-28T08:41:41.602Z,1736.00
2019-04-28T08:42:41.545Z,1608.00
2019-04-28T08:43:41.556Z,1424.00
2019-04-28T08:44:41.618Z,1284.00
2019-04-28T08:45:41.745Z,1244.00
2019-04-28T08:46:41.668Z,1212.00
2019-04-28T08:47:41.736Z,1240.00
2019-04-28T08:48:41.644Z,1240.00
2019-04-28T08:49:41.670Z,1300.00
2019-04-28T08:50:41.826Z,1324.00
2019-04-28T08:52:41.695Z,1392.00
2019-04-28T08:53:41.714Z,1396.00
2019-04-28T08:54:41.723Z,1356.00
2019-04-28T08:55:41.784Z,1340.00
2019-04-28T08:56:41.932Z,1328.00
2019-04-28T08:57:41.763Z,1348.00
2019-04-28T08:58:41.885Z,1356.00
2019-04-28T08:59:43.204Z,1340.00
2019-04-28T09:00:42.121Z,1296.00
2019-04-28T09:02:41.854Z,1156.00
2019-04-28T09:03:41.855Z,1064.00
2019-04-28T09:04:41.862Z,988.00
2019-04-28T09:05:41.873Z,932.00
2019-04-28T09:06:41.897Z,884.00
2019-04-28T09:07:41.904Z,852.00
2019-04-28T09:08:42.191Z,836.00
2019-04-28T09:09:41.953Z,820.00
2019-04-28T09:10:42.156Z,824.00
2019-04-28T09:11:41.978Z,836.00
2019-04-28T09:12:42.077Z,848.00
2019-04-28T09:13:43.842Z,868.00
2019-04-28T09:14:42.011Z,892.00
2019-04-28T09:16:42.035Z,1040.00
2019-04-28T09:17:42.050Z,1152.00
2019-04-28T09:18:42.062Z,1244.00
2019-04-28T09:19:42.502Z,1312.00
2019-04-28T09:20:42.156Z,1340.00
2019-04-28T09:21:42.148Z,1340.00
2019-04-28T09:22:42.152Z,1316.00
2019-04-28T09:23:42.174Z,1276.00
2019-04-28T09:25:42.148Z,1200.00
2019-04-28T09:26:42.777Z,1196.00
2019-04-28T09:27:42.293Z,1232.00
2019-04-28T09:28:42.250Z,1320.00
2019-04-28T09:29:42.232Z,1436.00
2019-04-28T09:30:42.240Z,1572.00
2019-04-28T09:31:42.243Z,1724.00
2019-04-28T09:32:42.294Z,1852.00
2019-04-28T09:33:42.321Z,1972.00
2019-04-28T09:34:42.280Z,2092.00
2019-04-28T09:35:42.446Z,2200.00
2019-04-28T09:37:42.363Z,2456.00
2019-04-28T09:38:42.419Z,2620.00
2019-04-28T09:39:42.333Z,2808.00
2019-04-28T09:40:42.355Z,2996.00
2019-04-28T09:42:42.378Z,3312.00
2019-04-28T09:43:42.386Z,3428.00
2019-04-28T09:44:42.710Z,3520.00
2019-04-28T09:45:42.580Z,3608.00
2019-04-28T09:46:42.440Z,3688.00
2019-04-28T09:47:42.640Z,3776.00
2019-04-28T09:48:42.469Z,3872.00
2019-04-28T09:49:42.474Z,3968.00
2019-04-28T09:50:42.576Z,4076.00
2019-04-28T09:51:42.639Z,4192.00
2019-04-28T09:52:42.573Z,4284.00
2019-04-28T09:53:42.535Z,4392.00
2019-04-28T09:54:42.725Z,4468.00
2019-04-28T09:55:42.563Z,4540.00
2019-04-28T09:56:55.664Z,4584.00
2019-04-28T09:57:42.794Z,4616.00
2019-04-28T09:58:42.611Z,4660.00
2019-04-28T09:59:42.629Z,4708.00
2019-04-28T10:00:42.793Z,4760.00
2019-04-28T10:01:42.660Z,4812.00
2019-04-28T10:02:42.846Z,4860.00
2019-04-28T10:03:42.703Z,4856.00
2019-04-28T10:04:43.483Z,4864.00
2019-04-28T10:05:42.741Z,4880.00
2019-04-28T10:06:42.731Z,4792.00
2019-04-28T10:07:42.729Z,4788.00
2019-04-28T10:08:42.796Z,4780.00
2019-04-28T10:09:42.760Z,4756.00
2019-04-28T10:10:42.889Z,4720.00
2019-04-28T10:11:42.897Z,4656.00
2019-04-28T10:12:42.901Z,4580.00
2019-04-28T10:13:42.830Z,4516.00
2019-04-28T10:14:42.862Z,4468.00
2019-04-28T10:15:42.858Z,4424.00
2019-04-28T10:16:42.870Z,4360.00
2019-04-28T10:17:42.878Z,4272.00
2019-04-28T10:18:42.899Z,4172.00
2019-04-28T10:19:42.930Z,4076.00
2019-04-28T10:20:42.942Z,3996.00
2019-04-28T10:21:42.992Z,3940.00
2019-04-28T10:22:43.048Z,3860.00
2019-04-28T10:23:42.986Z,3760.00
2019-04-28T10:24:42.988Z,3632.00
2019-04-28T10:25:42.992Z,3548.00
2019-04-28T10:26:43.373Z,3536.00
2019-04-28T10:27:43.083Z,3560.00
2019-04-28T10:28:43.047Z,3616.00
2019-04-28T10:29:43.070Z,3664.00
2019-04-28T10:30:43.080Z,3748.00
2019-04-28T10:32:43.115Z,3944.00
2019-04-28T10:33:43.348Z,4088.00
2019-04-28T10:34:54.343Z,4256.00
2019-04-28T10:35:43.469Z,4388.00
2019-04-28T10:36:43.149Z,4456.00
2019-04-28T10:37:45.540Z,4384.00
2019-04-28T10:38:43.191Z,4316.00
2019-04-28T10:39:43.212Z,4480.00
2019-04-28T10:40:43.238Z,4748.00
2019-04-28T10:41:43.475Z,4996.00
2019-04-28T10:42:43.257Z,5392.00
2019-04-28T10:43:43.316Z,5228.00
2019-04-28T10:44:43.328Z,5116.00
2019-04-28T10:46:43.313Z,5104.00
2019-04-28T10:47:43.313Z,4956.00
2019-04-28T10:48:43.420Z,4860.00
2019-04-28T10:49:43.358Z,4948.00
2019-04-28T10:51:43.434Z,3980.00
2019-04-28T10:52:43.463Z,3220.00
2019-04-28T10:53:43.409Z,2612.00
2019-04-28T10:55:43.550Z,2300.00
2019-04-28T10:56:43.552Z,2672.00
2019-04-28T10:57:43.660Z,2760.00
2019-04-28T10:58:43.513Z,2192.00
2019-04-28T10:59:43.494Z,1892.00
2019-04-28T11:00:43.508Z,2140.00
2019-04-28T11:01:43.588Z,2792.00
2019-04-28T11:02:43.789Z,3576.00
2019-04-28T11:03:43.549Z,4044.00
2019-04-28T11:04:43.637Z,4316.00
2019-04-28T11:05:43.580Z,4516.00
2019-04-28T11:06:43.682Z,4664.00
2019-04-28T11:07:43.628Z,4652.00
2019-04-28T11:08:43.847Z,4632.00
2019-04-28T11:09:43.842Z,4728.00
2019-04-28T11:10:44.510Z,4808.00
2019-04-28T11:11:44.385Z,4916.00
2019-04-28T11:12:43.683Z,5096.00
2019-04-28T11:13:44.076Z,5312.00
2019-04-28T11:14:43.927Z,5768.00
2019-04-28T11:15:43.742Z,5780.00
2019-04-28T11:16:43.737Z,5780.00
2019-04-28T11:17:43.779Z,5132.00
2019-04-28T11:18:43.771Z,5060.00
2019-04-28T11:19:43.785Z,5148.00
2019-04-28T11:20:44.007Z,5216.00
2019-04-28T11:21:43.962Z,5244.00
2019-04-28T11:22:43.842Z,5340.00
2019-04-28T11:23:43.839Z,6160.00
2019-04-28T11:24:43.919Z,6072.00
2019-04-28T11:25:44.820Z,5716.00
2019-04-28T11:26:43.931Z,5824.00
2019-04-28T11:27:43.952Z,6148.00
2019-04-28T11:29:44.037Z,6112.00
2019-04-28T11:30:43.977Z,6108.00
2019-04-28T11:31:43.973Z,6108.00
2019-04-28T11:32:43.977Z,6096.00
2019-04-28T11:33:44.181Z,6080.00
2019-04-28T11:34:44.215Z,6012.00
2019-04-28T11:35:44.022Z,5944.00
2019-04-28T11:36:44.042Z,5912.00
2019-04-28T11:37:44.047Z,5880.00
2019-04-28T11:38:44.254Z,5808.00
2019-04-28T11:39:44.141Z,5728.00
2019-04-28T11:40:44.125Z,5684.00
2019-04-28T11:41:44.373Z,5584.00
2019-04-28T11:42:44.127Z,5544.00
2019-04-28T11:43:44.353Z,5500.00
2019-04-28T11:44:44.196Z,5464.00
2019-04-28T11:45:44.806Z,5400.00
2019-04-28T11:46:44.304Z,5364.00
2019-04-28T11:47:44.205Z,5324.00
2019-04-28T11:49:44.362Z,5220.00
2019-04-28T11:50:44.254Z,5148.00
2019-04-28T11:51:44.262Z,5080.00
2019-04-28T11:52:44.292Z,5060.00
2019-04-28T11:53:44.306Z,5052.00
2019-04-28T11:54:44.311Z,5056.00
2019-04-28T11:56:44.335Z,5056.00
2019-04-28T11:57:44.351Z,5168.00
2019-04-28T11:58:44.371Z,5212.00
2019-04-28T11:59:44.732Z,5380.00
2019-04-28T12:00:45.993Z,3508.00
2019-04-28T12:01:44.417Z,3436.00
2019-04-28T12:02:44.414Z,3432.00
2019-04-28T12:03:44.449Z,3504.00
2019-04-28T12:04:44.458Z,3488.00
2019-04-28T12:05:44.857Z,3472.00
2019-04-28T12:06:44.538Z,3888.00
2019-04-28T12:07:44.509Z,3716.00
2019-04-28T12:08:44.637Z,4108.00
2019-04-28T12:09:44.721Z,4200.00
2019-04-28T12:10:44.555Z,4452.00
2019-04-28T12:11:45.197Z,4584.00
2019-04-28T12:12:44.567Z,4712.00
2019-04-28T12:14:44.815Z,5184.00
2019-04-28T12:15:44.619Z,5112.00
2019-04-28T12:16:44.654Z,4912.00
2019-04-28T12:17:44.662Z,4716.00
2019-04-28T12:18:44.678Z,4564.00
2019-04-28T12:19:45.143Z,4488.00
2019-04-28T12:20:44.701Z,5268.00
2019-04-28T12:21:44.709Z,4824.00
2019-04-28T12:22:44.774Z,4856.00
2019-04-28T12:23:44.912Z,5472.00
2019-04-28T12:24:44.759Z,5796.00
2019-04-28T12:25:45.004Z,5732.00
2019-04-28T12:26:45.536Z,4336.00
2019-04-28T12:28:44.820Z,3604.00
2019-04-28T12:29:44.878Z,3344.00
2019-04-28T12:30:44.903Z,3032.00
2019-04-28T12:31:44.856Z,2772.00
2019-04-28T12:32:45.752Z,2676.00
2019-04-28T12:33:45.538Z,2624.00
2019-04-28T12:34:44.900Z,2628.00
2019-04-28T12:35:48.143Z,2596.00
2019-04-28T12:36:45.101Z,2568.00
2019-04-28T12:38:45.084Z,2432.00
2019-04-28T12:39:45.002Z,2392.00
2019-04-28T12:40:44.983Z,2308.00
2019-04-28T12:41:45.010Z,2200.00
2019-04-28T12:42:45.086Z,2080.00
2019-04-28T12:43:45.696Z,1964.00
2019-04-28T12:45:45.585Z,1780.00
2019-04-28T12:46:45.133Z,1704.00
2019-04-28T12:47:45.158Z,1620.00
2019-04-28T12:48:45.709Z,1524.00
2019-04-28T12:49:46.190Z,1440.00
2019-04-28T12:50:45.309Z,1348.00
2019-04-28T12:51:45.303Z,1264.00
2019-04-28T12:52:45.163Z,1196.00
2019-04-28T12:53:45.248Z,1112.00
2019-04-28T12:54:45.204Z,1020.00
2019-04-28T12:55:45.408Z,920.00
2019-04-28T12:56:45.232Z,824.00
2019-04-28T12:57:45.583Z,756.00
2019-04-28T12:58:45.385Z,700.00
2019-04-28T12:59:45.531Z,672.00
2019-04-28T13:00:45.459Z,672.00
2019-04-28T13:01:45.692Z,684.00
2019-04-28T13:02:45.424Z,696.00
2019-04-28T13:03:45.330Z,724.00
2019-04-28T13:04:45.333Z,748.00
2019-04-28T13:05:45.350Z,768.00
2019-04-28T13:06:46.745Z,768.00
2019-04-28T13:07:45.930Z,760.00
2019-04-28T13:08:45.425Z,760.00
2019-04-28T13:09:45.785Z,756.00
2019-04-28T13:10:45.464Z,756.00
2019-04-28T13:11:45.465Z,756.00
2019-04-28T13:12:45.458Z,772.00
2019-04-28T13:13:46.983Z,804.00
2019-04-28T13:14:45.479Z,836.00
2019-04-28T13:15:45.496Z,868.00
2019-04-28T13:16:45.918Z,900.00
2019-04-28T13:17:46.524Z,972.00
2019-04-28T13:18:45.542Z,1104.00
2019-04-28T13:19:45.823Z,1300.00
2019-04-28T13:20:45.686Z,1560.00
2019-04-28T13:21:45.845Z,1860.00